createdAt,value
2018-10-18T00:00:03.709Z,100555.63
2018-10-18T00:05:07.821Z,100561.19
2018-10-18T00:10:11.123Z,100560.95
2018-10-18T00:15:14.843Z,100553.86
2018-10-18T00:20:18.256Z,100553.16
2018-10-18T00:25:21.568Z,100551.12
2018-10-18T00:30:24.881Z,100554.14
2018-10-18T00:35:28.171Z,100550.46
2018-10-18T00:40:31.498Z,100556.41
2018-10-18T00:45:34.791Z,100556.02
2018-10-18T00:50:38.094Z,100561.02
2018-10-18T00:55:41.409Z,100560.33
2018-10-18T01:00:44.708Z,100563.94
2018-10-18T01:05:48.000Z,100553.34
2018-10-18T01:10:51.326Z,100554.16
2018-10-18T01:15:54.628Z,100550.91
2018-10-18T01:20:57.922Z,100552.08
2018-10-18T01:26:01.678Z,100546.85
2018-10-18T01:31:05.016Z,100552.89
2018-10-18T01:36:08.378Z,100550.84
2018-10-18T01:41:11.668Z,100554.85
2018-10-18T01:46:14.977Z,100557.70
2018-10-18T01:51:18.277Z,100550.45
2018-10-18T01:56:21.627Z,100551.77
2018-10-18T02:01:24.925Z,100558.42
2018-10-18T02:06:28.253Z,100552.98
2018-10-18T02:11:31.556Z,100551.15
2018-10-18T02:16:34.901Z,100550.88
2018-10-18T02:21:38.187Z,100550.79
2018-10-18T02:26:41.455Z,100551.31
2018-10-18T02:31:44.770Z,100551.05
2018-10-18T02:36:48.079Z,100550.56
2018-10-18T02:41:51.444Z,100554.22
2018-10-18T02:46:54.800Z,100548.61
2018-10-18T02:51:58.154Z,100543.17
2018-10-18T02:57:01.506Z,100555.25
2018-10-18T03:02:05.308Z,100555.45
2018-10-18T03:07:08.948Z,100554.32
2018-10-18T03:12:12.327Z,100555.84
2018-10-18T03:17:15.603Z,100560.31
2018-10-18T03:22:18.947Z,100557.91
2018-10-18T03:27:22.239Z,100561.63
2018-10-18T03:32:25.564Z,100561.44
2018-10-18T03:37:28.861Z,100557.46
2018-10-18T03:42:32.175Z,100555.31
2018-10-18T03:47:35.566Z,100559.11
2018-10-18T03:52:38.875Z,100558.61
2018-10-18T03:57:42.223Z,100563.40
2018-10-18T04:02:45.608Z,100563.08
2018-10-18T04:07:48.935Z,100566.18
2018-10-18T04:12:52.370Z,100568.66
2018-10-18T04:17:55.736Z,100575.97
2018-10-18T04:22:58.972Z,100575.30
2018-10-18T04:28:02.339Z,100581.11
2018-10-18T04:33:05.649Z,100577.30
2018-10-18T04:38:08.953Z,100579.13
2018-10-18T04:43:12.232Z,100588.66
2018-10-18T04:48:15.614Z,100587.01
2018-10-18T04:53:18.803Z,100591.62
2018-10-18T04:58:22.109Z,100592.13
2018-10-18T05:03:25.379Z,100595.94
2018-10-18T05:08:29.023Z,100606.55
2018-10-18T05:13:32.320Z,100617.66
2018-10-18T05:18:35.603Z,100612.35
2018-10-18T05:23:38.925Z,100617.52
2018-10-18T05:28:42.197Z,100621.17
2018-10-18T05:33:45.463Z,100622.67
2018-10-18T05:38:48.729Z,100629.45
2018-10-18T05:43:52.027Z,100635.11
2018-10-18T05:48:55.330Z,100648.75
2018-10-18T05:53:58.760Z,100652.23
2018-10-18T05:59:01.942Z,100663.98
2018-10-18T06:04:05.313Z,100654.56
2018-10-18T06:09:11.621Z,100657.37
2018-10-18T06:14:14.917Z,100672.45
2018-10-18T06:19:18.342Z,100681.38
2018-10-18T06:24:21.576Z,100684.69
2018-10-18T06:29:24.883Z,100695.13
2018-10-18T06:34:28.257Z,100691.63
2018-10-18T06:39:31.664Z,100684.79
2018-10-18T06:44:34.969Z,100697.34
2018-10-18T06:49:38.436Z,100703.14
2018-10-18T06:54:41.764Z,100699.80
2018-10-18T06:59:45.132Z,100702.25
2018-10-18T07:04:48.439Z,100706.94
2018-10-18T07:09:51.781Z,100704.33
2018-10-18T07:14:55.199Z,100706.91
2018-10-18T07:19:58.491Z,100705.80
2018-10-18T07:25:01.805Z,100712.65
2018-10-18T07:30:06.990Z,100720.39
2018-10-18T07:35:11.467Z,100716.40
2018-10-18T07:40:15.919Z,100714.70
2018-10-18T07:45:19.201Z,100727.85
2018-10-18T07:50:22.507Z,100720.16
2018-10-18T07:55:25.833Z,100722.63
2018-10-18T08:00:29.471Z,100721.92
2018-10-18T08:05:32.714Z,100726.36
2018-10-18T08:10:36.153Z,100727.78
2018-10-18T08:15:39.741Z,100725.13
2018-10-18T08:20:43.569Z,100727.64
2018-10-18T08:25:46.929Z,100727.29
2018-10-18T08:30:53.489Z,100731.67
2018-10-18T08:35:56.815Z,100732.77
2018-10-18T08:41:00.335Z,100733.81
2018-10-18T08:46:03.810Z,100741.69
2018-10-18T08:51:07.249Z,100743.86
2018-10-18T08:56:10.852Z,100746.44
2018-10-18T09:01:14.324Z,100752.61
2018-10-18T09:06:17.800Z,100745.57
2018-10-18T09:11:21.449Z,100738.91
2018-10-18T09:16:24.905Z,100745.37
2018-10-18T09:21:28.355Z,100743.84
2018-10-18T09:26:31.672Z,100746.05
2018-10-18T09:31:35.153Z,100743.89
2018-10-18T09:36:38.666Z,100736.98
2018-10-18T09:41:42.306Z,100734.44
2018-10-18T09:46:45.724Z,100732.20
2018-10-18T09:51:49.167Z,100740.10
2018-10-18T09:56:52.769Z,100740.78
2018-10-18T10:02:01.389Z,100732.04
2018-10-18T10:07:04.954Z,100738.16
2018-10-18T10:12:08.324Z,100738.60
2018-10-18T10:17:11.794Z,100744.23
2018-10-18T10:22:15.313Z,100748.30
2018-10-18T10:27:18.609Z,100748.85
2018-10-18T10:32:22.140Z,100757.95
2018-10-18T10:37:25.538Z,100762.00
2018-10-18T10:42:29.117Z,100758.00
2018-10-18T10:47:32.584Z,100753.80
2018-10-18T10:52:35.949Z,100753.63
2018-10-18T10:57:39.269Z,100753.17
2018-10-18T11:02:42.878Z,100751.43
2018-10-18T11:07:46.506Z,100747.92
2018-10-18T11:12:49.953Z,100744.38
2018-10-18T11:17:53.555Z,100749.57
2018-10-18T11:22:57.204Z,100752.50
2018-10-18T11:28:00.742Z,100755.88
2018-10-18T11:33:04.238Z,100758.24
2018-10-18T11:38:07.863Z,100760.66
2018-10-18T11:43:11.753Z,100759.08
2018-10-18T11:48:15.587Z,100762.56
2018-10-18T11:53:19.013Z,100765.55
2018-10-18T11:58:22.323Z,100757.89
2018-10-18T12:03:25.866Z,100758.97
2018-10-18T12:08:29.319Z,100758.40
2018-10-18T12:13:33.025Z,100748.09
2018-10-18T12:18:36.647Z,100759.48
2018-10-18T12:23:40.344Z,100765.89
2018-10-18T12:28:43.822Z,100760.09
2018-10-18T12:33:47.233Z,100761.83
2018-10-18T12:38:50.629Z,100765.69
2018-10-18T12:43:54.406Z,100768.67
2018-10-18T12:48:57.977Z,100763.98
2018-10-18T12:54:01.393Z,100780.37
2018-10-18T12:59:04.798Z,100772.76
2018-10-18T13:04:08.487Z,100773.84
2018-10-18T13:09:11.985Z,100778.86
2018-10-18T13:14:15.709Z,100775.73
2018-10-18T13:19:18.985Z,100778.97
2018-10-18T13:24:22.667Z,100773.56
2018-10-18T13:29:26.057Z,100772.49
2018-10-18T13:34:29.390Z,100769.77
2018-10-18T13:39:32.701Z,100777.38
2018-10-18T13:44:36.034Z,100779.91
2018-10-18T13:49:40.550Z,100782.77
2018-10-18T13:54:44.198Z,100781.52
2018-10-18T13:59:59.049Z,100788.67
2018-10-18T14:05:02.465Z,100787.42
2018-10-18T14:10:06.054Z,100790.84
2018-10-18T14:15:09.575Z,100795.21
2018-10-18T14:20:13.046Z,100793.05
2018-10-18T14:25:16.436Z,100789.87
2018-10-18T14:30:20.050Z,100786.53
2018-10-18T14:35:23.402Z,100788.69
2018-10-18T14:40:26.803Z,100787.98
2018-10-18T14:45:30.137Z,100790.97
2018-10-18T14:50:33.587Z,100792.09
2018-10-18T14:55:37.118Z,100790.09
2018-10-18T15:00:40.494Z,100797.13
2018-10-18T15:05:44.659Z,100804.61
2018-10-18T15:10:48.074Z,100805.63
2018-10-18T15:15:52.558Z,100809.63
2018-10-18T15:20:55.897Z,100812.61
2018-10-18T15:25:59.526Z,100810.26
2018-10-18T15:31:02.868Z,100822.61
2018-10-18T15:36:06.330Z,100820.77
2018-10-18T15:41:09.904Z,100813.27
2018-10-18T15:46:13.357Z,100818.92
2018-10-18T15:51:16.795Z,100825.27
2018-10-18T15:56:20.413Z,100825.08
2018-10-18T16:01:23.765Z,100828.25
2018-10-18T16:06:27.242Z,100822.72
2018-10-18T16:11:30.540Z,100823.03
2018-10-18T16:16:33.886Z,100823.86
2018-10-18T16:21:37.231Z,100823.18
2018-10-18T16:26:40.706Z,100828.52
2018-10-18T16:31:44.014Z,100829.14
2018-10-18T16:36:47.379Z,100840.13
2018-10-18T16:41:50.796Z,100844.44
2018-10-18T16:46:55.351Z,100848.13
2018-10-18T16:51:58.747Z,100854.60
2018-10-18T16:57:02.100Z,100853.92
2018-10-18T17:02:05.858Z,100859.06
2018-10-18T17:07:09.223Z,100860.40
2018-10-18T17:12:12.594Z,100866.87
2018-10-18T17:17:16.030Z,100871.37
2018-10-18T17:22:35.261Z,100877.03
2018-10-18T17:27:38.843Z,100883.03
2018-10-18T17:32:42.567Z,100877.17
2018-10-18T17:37:46.117Z,100880.48
2018-10-18T17:42:49.878Z,100881.13
2018-10-18T17:47:53.258Z,100873.95
2018-10-18T17:52:56.691Z,100882.27
2018-10-18T17:57:59.995Z,100876.93
2018-10-18T18:03:03.398Z,100882.58
2018-10-18T18:08:06.789Z,100886.08
2018-10-18T18:13:10.124Z,100889.56
2018-10-18T18:18:13.470Z,100886.70
2018-10-18T18:23:16.834Z,100891.88
2018-10-18T18:28:20.165Z,100905.72
2018-10-18T18:33:23.568Z,100903.53
2018-10-18T18:38:26.994Z,100903.05
2018-10-18T18:43:30.667Z,100911.06
2018-10-18T18:48:34.153Z,100916.72
2018-10-18T18:53:37.614Z,100924.20
2018-10-18T18:58:40.921Z,100928.02
2018-10-18T19:03:44.249Z,100929.86
2018-10-18T19:08:47.593Z,100937.55
2018-10-18T19:13:51.025Z,100941.05
2018-10-18T19:18:54.383Z,100939.39
2018-10-18T19:23:57.767Z,100941.05
2018-10-18T19:29:01.193Z,100947.20
2018-10-18T19:34:04.579Z,100941.87
2018-10-18T19:39:08.265Z,100943.52
2018-10-18T19:44:11.667Z,100946.50
2018-10-18T19:49:15.006Z,100948.66
2018-10-18T19:54:18.729Z,100957.83
2018-10-18T19:59:22.027Z,100961.33
2018-10-18T20:04:25.375Z,100967.69
2018-10-18T20:09:28.693Z,100966.16
2018-10-18T20:14:32.078Z,100969.33
2018-10-18T20:19:35.385Z,100972.63
2018-10-18T20:24:39.392Z,100974.98
2018-10-18T20:29:42.698Z,100981.46
2018-10-18T20:34:46.006Z,100977.77
2018-10-18T20:39:49.310Z,100977.97
2018-10-18T20:44:52.661Z,100968.82
2018-10-18T20:49:56.001Z,100973.65
2018-10-18T20:54:59.318Z,100985.15
2018-10-18T21:00:02.889Z,100990.48
2018-10-18T21:05:06.619Z,100987.50
2018-10-18T21:10:09.990Z,100986.48
2018-10-18T21:15:13.455Z,100985.66
2018-10-18T21:20:17.030Z,100989.66
2018-10-18T21:25:20.337Z,100985.66
2018-10-18T21:30:23.664Z,100994.17
2018-10-18T21:35:26.970Z,100990.69
2018-10-18T21:40:30.336Z,100992.84
2018-10-18T21:45:33.889Z,100988.33
2018-10-18T21:50:37.191Z,100988.02
2018-10-18T21:55:40.555Z,100985.66
2018-10-18T22:00:45.296Z,100980.01
2018-10-18T22:05:48.801Z,100996.02
2018-10-18T22:10:52.164Z,100995.20
2018-10-18T22:15:55.570Z,100991.70
2018-10-18T22:20:58.968Z,100994.38
2018-10-18T22:26:02.239Z,100997.04
2018-10-18T22:31:06.023Z,101005.41
2018-10-18T22:36:09.388Z,100999.95
2018-10-18T22:41:12.851Z,100998.77
2018-10-18T22:46:16.230Z,100995.59
2018-10-18T22:51:19.670Z,100996.93
2018-10-18T22:56:23.037Z,100993.63
2018-10-18T23:01:26.399Z,100995.16
2018-10-18T23:06:29.767Z,100995.16
2018-10-18T23:11:33.121Z,100999.16
2018-10-18T23:16:36.804Z,100992.69
2018-10-18T23:21:40.141Z,100993.87
2018-10-18T23:26:43.490Z,100993.05
2018-10-18T23:31:46.837Z,100993.05
2018-10-18T23:36:50.157Z,100998.89
2018-10-18T23:41:53.483Z,100997.75
2018-10-18T23:46:56.823Z,100999.25
2018-10-18T23:52:00.192Z,100988.77
2018-10-18T23:57:03.653Z,100989.28
